sensor_id;sensor_type;location;lat;lon;timestamp;pressure;altitude;pressure_sealevel;temperature;humidity
67052;BME280;53957;47.222;18.670;2024-01-15T00:02:20;98974.28;;;-3.45;100.00
67052;BME280;53957;47.222;18.670;2024-01-15T00:05:23;98961.94;;;-3.38;100.00
67052;BME280;53957;47.222;18.670;2024-01-15T00:08:26;98973.84;;;-3.00;100.00
67052;BME280;53957;47.222;18.670;2024-01-15T00:11:29;98959.28;;;-3.19;100.00
67052;BME280;53957;47.222;18.670;2024-01-15T00:14:32;98957.87;;;-3.34;100.00
67052;BME280;53957;47.222;18.670;2024-01-15T00:17:36;98958.34;;;-3.37;100.00
67052;BME280;53957;47.222;18.670;2024-01-15T00:20:38;98957.56;;;-3.26;100.00
67052;BME280;53957;47.222;18.670;2024-01-15T00:23:47;98960.09;;;-3.07;100.00
67052;BME280;53957;47.222;18.670;2024-01-15T00:26:50;98957.03;;;-3.04;100.00
67052;BME280;53957;47.222;18.670;2024-01-15T00:29:57;98941.44;;;-2.80;100.00
67052;BME280;53957;47.222;18.670;2024-01-15T00:33:00;98934.06;;;-2.48;100.00
67052;BME280;53957;47.222;18.670;2024-01-15T00:36:05;98928.03;;;-2.36;100.00
67052;BME280;53957;47.222;18.670;2024-01-15T00:39:09;98919.66;;;-2.50;100.00
67052;BME280;53957;47.222;18.670;2024-01-15T00:42:16;98921.13;;;-2.90;100.00
67052;BME280;53957;47.222;18.670;2024-01-15T00:45:20;98913.59;;;-3.10;100.00
67052;BME280;53957;47.222;18.670;2024-01-15T00:48:24;98904.16;;;-3.11;100.00
67052;BME280;53957;47.222;18.670;2024-01-15T00:51:27;98913.66;;;-3.29;100.00
67052;BME280;53957;47.222;18.670;2024-01-15T00:54:30;98906.81;;;-3.53;100.00
67052;BME280;53957;47.222;18.670;2024-01-15T00:57:36;98891.13;;;-3.11;100.00
67052;BME280;53957;47.222;18.670;2024-01-15T01:00:40;98893.34;;;-3.38;100.00
67052;BME280;53957;47.222;18.670;2024-01-15T11:21:31;98723.41;;;7.64;46.34
67052;BME280;53957;47.222;18.670;2024-01-15T11:24:39;98724.66;;;7.66;46.44
67052;BME280;53957;47.222;18.670;2024-01-15T11:27:46;98738.38;;;7.82;45.54
67052;BME280;53957;47.222;18.670;2024-01-15T11:31:13;98738.75;;;7.53;46.35
67052;BME280;53957;47.222;18.670;2024-01-15T11:34:16;98717.53;;;6.88;47.41
67052;BME280;53957;47.222;18.670;2024-01-15T11:37:20;98709.50;;;7.44;46.35
67052;BME280;53957;47.222;18.670;2024-01-15T11:43:41;98692.88;;;7.02;46.19
67052;BME280;53957;47.222;18.670;2024-01-15T11:50:03;98679.66;;;7.38;47.40
67052;BME280;53957;47.222;18.670;2024-01-15T11:53:43;98689.72;;;7.87;45.48
67052;BME280;53957;47.222;18.670;2024-01-15T11:56:49;98684.16;;;7.38;46.17
67052;BME280;53957;47.222;18.670;2024-01-15T11:59:52;98681.19;;;6.61;46.85
67052;BME280;53957;47.222;18.670;2024-01-15T12:02:59;98679.94;;;7.73;46.59
67052;BME280;53957;47.222;18.670;2024-01-15T12:06:05;98667.37;;;8.11;46.38
67052;BME280;53957;47.222;18.670;2024-01-15T12:09:08;98674.75;;;7.32;46.57
67052;BME280;53957;47.222;18.670;2024-01-15T12:12:24;98668.19;;;7.52;46.85
67052;BME280;53957;47.222;18.670;2024-01-15T12:15:32;98662.97;;;7.83;47.47
67052;BME280;53957;47.222;18.670;2024-01-15T12:18:37;98659.91;;;6.94;49.39
67052;BME280;53957;47.222;18.670;2024-01-15T12:21:41;98648.19;;;7.46;47.70
67052;BME280;53957;47.222;18.670;2024-01-15T12:24:44;98650.78;;;6.72;48.27
67052;BME280;53957;47.222;18.670;2024-01-15T12:27:47;98634.31;;;7.12;48.81
67052;BME280;53957;47.222;18.670;2024-01-15T12:30:52;98626.09;;;7.14;49.58
67052;BME280;53957;47.222;18.670;2024-01-15T12:33:56;98634.78;;;7.28;49.29
67052;BME280;53957;47.222;18.670;2024-01-15T12:36:59;98638.31;;;7.23;48.06
67052;BME280;53957;47.222;18.670;2024-01-15T12:40:06;98635.50;;;7.20;49.40
67052;BME280;53957;47.222;18.670;2024-01-15T12:43:10;98640.12;;;7.14;49.13
67052;BME280;53957;47.222;18.670;2024-01-15T12:46:12;98629.72;;;7.40;49.08
67052;BME280;53957;47.222;18.670;2024-01-15T12:49:20;98627.31;;;6.52;50.33
67052;BME280;53957;47.222;18.670;2024-01-15T12:52:27;98626.44;;;6.56;49.64
67052;BME280;53957;47.222;18.670;2024-01-15T12:55:35;98632.06;;;5.94;50.47
67052;BME280;53957;47.222;18.670;2024-01-15T12:58:38;98635.78;;;6.54;51.14
67052;BME280;53957;47.222;18.670;2024-01-15T13:01:43;98627.69;;;6.17;50.81
67052;BME280;53957;47.222;18.670;2024-01-15T13:04:49;98631.72;;;6.70;51.24
67052;BME280;53957;47.222;18.670;2024-01-15T13:07:52;98638.72;;;6.66;51.81
67052;BME280;53957;47.222;18.670;2024-01-15T13:10:56;98637.59;;;5.92;52.28
67052;BME280;53957;47.222;18.670;2024-01-15T13:14:04;98629.25;;;6.18;53.89
67052;BME280;53957;47.222;18.670;2024-01-15T13:17:07;98636.53;;;6.12;52.56
67052;BME280;53957;47.222;18.670;2024-01-15T13:20:10;98624.75;;;5.86;53.69
67052;BME280;53957;47.222;18.670;2024-01-15T13:23:14;98630.13;;;6.13;53.38
67052;BME280;53957;47.222;18.670;2024-01-15T13:26:17;98636.53;;;6.26;53.28
67052;BME280;53957;47.222;18.670;2024-01-15T13:29:22;98640.59;;;6.05;52.83
67052;BME280;53957;47.222;18.670;2024-01-15T13:32:28;98642.13;;;5.92;52.78
67052;BME280;53957;47.222;18.670;2024-01-15T13:35:32;98634.56;;;5.33;52.82
67052;BME280;53957;47.222;18.670;2024-01-15T13:38:35;98641.91;;;5.36;53.30
67052;BME280;53957;47.222;18.670;2024-01-15T13:41:39;98639.75;;;5.38;54.55
67052;BME280;53957;47.222;18.670;2024-01-15T13:44:42;98629.34;;;5.28;55.64
67052;BME280;53957;47.222;18.670;2024-01-15T13:47:46;98634.25;;;5.15;56.60
67052;BME280;53957;47.222;18.670;2024-01-15T13:50:49;98634.06;;;5.31;57.26
67052;BME280;53957;47.222;18.670;2024-01-15T13:53:53;98637.31;;;4.84;59.53
67052;BME280;53957;47.222;18.670;2024-01-15T13:56:56;98635.03;;;4.54;58.77
67052;BME280;53957;47.222;18.670;2024-01-15T14:00:01;98630.56;;;4.25;59.88
67052;BME280;53957;47.222;18.670;2024-01-15T14:03:06;98620.47;;;4.32;61.09
67052;BME280;53957;47.222;18.670;2024-01-15T14:06:10;98621.00;;;4.05;63.68
67052;BME280;53957;47.222;18.670;2024-01-15T14:09:13;98609.91;;;4.08;64.76
67052;BME280;53957;47.222;18.670;2024-01-15T14:12:20;98614.84;;;4.14;64.47
67052;BME280;53957;47.222;18.670;2024-01-15T14:15:24;98602.69;;;4.13;67.59
67052;BME280;53957;47.222;18.670;2024-01-15T14:18:28;98598.87;;;4.00;68.76
67052;BME280;53957;47.222;18.670;2024-01-15T14:21:36;98596.28;;;3.95;68.55
67052;BME280;53957;47.222;18.670;2024-01-15T14:24:39;98602.69;;;3.89;70.40
67052;BME280;53957;47.222;18.670;2024-01-15T14:27:43;98613.25;;;3.84;68.96
67052;BME280;53957;47.222;18.670;2024-01-15T14:30:46;98600.50;;;3.67;73.25
67052;BME280;53957;47.222;18.670;2024-01-15T14:33:49;98605.69;;;3.77;73.72
67052;BME280;53957;47.222;18.670;2024-01-15T14:36:53;98602.81;;;3.74;73.04
67052;BME280;53957;47.222;18.670;2024-01-15T14:39:57;98614.59;;;3.52;72.88
67052;BME280;53957;47.222;18.670;2024-01-15T14:43:02;98616.19;;;3.48;73.74
67052;BME280;53957;47.222;18.670;2024-01-15T14:46:06;98618.75;;;3.58;73.38
67052;BME280;53957;47.222;18.670;2024-01-15T14:49:10;98626.28;;;3.35;72.04
67052;BME280;53957;47.222;18.670;2024-01-15T14:52:14;98618.09;;;3.37;74.20
67052;BME280;53957;47.222;18.670;2024-01-15T14:55:17;98626.34;;;3.25;75.37
67052;BME280;53957;47.222;18.670;2024-01-15T14:58:20;98627.91;;;3.31;73.22
67052;BME280;53957;47.222;18.670;2024-01-15T15:01:24;98622.72;;;3.16;75.17
67052;BME280;53957;47.222;18.670;2024-01-15T15:04:28;98618.28;;;3.06;76.59
67052;BME280;53957;47.222;18.670;2024-01-15T15:07:34;98603.38;;;2.86;79.72
67052;BME280;53957;47.222;18.670;2024-01-15T15:10:39;98614.19;;;2.84;79.84
67052;BME280;53957;47.222;18.670;2024-01-15T15:13:43;98611.59;;;2.74;80.13
67052;BME280;53957;47.222;18.670;2024-01-15T15:16:48;98607.06;;;2.85;80.87
67052;BME280;53957;47.222;18.670;2024-01-15T15:19:52;98610.78;;;2.79;79.41
67052;BME280;53957;47.222;18.670;2024-01-15T15:22:56;98628.94;;;2.85;79.24
67052;BME280;53957;47.222;18.670;2024-01-15T15:26:00;98637.63;;;2.81;81.57
67052;BME280;53957;47.222;18.670;2024-01-15T15:29:03;98666.38;;;2.72;80.72
67052;BME280;53957;47.222;18.670;2024-01-15T15:32:06;98669.75;;;2.78;79.52
67052;BME280;53957;47.222;18.670;2024-01-15T15:35:10;98676.59;;;2.84;80.44
67052;BME280;53957;47.222;18.670;2024-01-15T15:38:16;98674.78;;;2.74;80.97
67052;BME280;53957;47.222;18.670;2024-01-15T15:41:20;98670.06;;;2.66;82.22
67052;BME280;53957;47.222;18.670;2024-01-15T15:44:23;98661.41;;;2.60;84.09
67052;BME280;53957;47.222;18.670;2024-01-15T15:47:28;98669.03;;;2.56;84.32
67052;BME280;53957;47.222;18.670;2024-01-15T15:50:32;98666.44;;;2.46;86.38
67052;BME280;53957;47.222;18.670;2024-01-15T15:53:36;98678.28;;;2.44;86.88
67052;BME280;53957;47.222;18.670;2024-01-15T15:56:45;98679.38;;;2.32;89.75
67052;BME280;53957;47.222;18.670;2024-01-15T15:59:52;98662.00;;;2.21;92.36
67052;BME280;53957;47.222;18.670;2024-01-15T16:02:58;98675.16;;;2.16;94.65
67052;BME280;53957;47.222;18.670;2024-01-15T16:06:01;98683.34;;;2.04;94.80
67052;BME280;53957;47.222;18.670;2024-01-15T16:09:05;98693.84;;;1.88;94.79
67052;BME280;53957;47.222;18.670;2024-01-15T16:12:09;98689.91;;;2.01;95.89
67052;BME280;53957;47.222;18.670;2024-01-15T16:15:22;98687.78;;;2.03;94.40
67052;BME280;53957;47.222;18.670;2024-01-15T16:18:29;98691.75;;;1.96;95.52
67052;BME280;53957;47.222;18.670;2024-01-15T16:21:54;98712.25;;;1.78;100.00
67052;BME280;53957;47.222;18.670;2024-01-15T16:25:18;98703.81;;;1.76;99.28
67052;BME280;53957;47.222;18.670;2024-01-15T16:28:29;98704.38;;;1.73;98.55
67052;BME280;53957;47.222;18.670;2024-01-15T16:31:33;98708.03;;;1.87;100.00
67052;BME280;53957;47.222;18.670;2024-01-15T16:34:36;98727.47;;;1.71;100.00
67052;BME280;53957;47.222;18.670;2024-01-15T16:37:39;98729.31;;;1.70;100.00
67052;BME280;53957;47.222;18.670;2024-01-15T16:40:44;98725.66;;;1.87;100.00
67052;BME280;53957;47.222;18.670;2024-01-15T16:43:48;98716.91;;;1.45;100.00
67052;BME280;53957;47.222;18.670;2024-01-15T16:46:51;98709.03;;;1.55;100.00
67052;BME280;53957;47.222;18.670;2024-01-15T16:49:56;98713.19;;;1.31;100.00
67052;BME280;53957;47.222;18.670;2024-01-15T16:52:59;98720.59;;;1.44;96.63
67052;BME280;53957;47.222;18.670;2024-01-15T16:56:04;98723.78;;;1.61;92.94
67052;BME280;53957;47.222;18.670;2024-01-15T16:59:08;98723.25;;;1.65;91.25
67052;BME280;53957;47.222;18.670;2024-01-15T17:02:11;98726.44;;;1.72;90.01
67052;BME280;53957;47.222;18.670;2024-01-15T17:05:14;98734.88;;;1.79;89.03
67052;BME280;53957;47.222;18.670;2024-01-15T17:08:18;98738.81;;;1.97;85.47
67052;BME280;53957;47.222;18.670;2024-01-15T17:11:24;98733.28;;;1.99;84.86
67052;BME280;53957;47.222;18.670;2024-01-15T17:14:31;98745.38;;;1.95;87.70
67052;BME280;53957;47.222;18.670;2024-01-15T17:17:34;98722.22;;;1.66;89.86
67052;BME280;53957;47.222;18.670;2024-01-15T17:20:38;98720.91;;;1.79;83.83
67052;BME280;53957;47.222;18.670;2024-01-15T17:23:44;98733.50;;;1.66;90.82
67052;BME280;53957;47.222;18.670;2024-01-15T17:26:48;98728.53;;;1.65;87.06
67052;BME280;53957;47.222;18.670;2024-01-15T17:29:53;98738.50;;;1.57;88.75
67052;BME280;53957;47.222;18.670;2024-01-15T17:33:01;98740.56;;;1.55;91.66
67052;BME280;53957;47.222;18.670;2024-01-15T17:36:04;98746.88;;;1.54;91.53
67052;BME280;53957;47.222;18.670;2024-01-15T17:39:16;98746.38;;;1.52;91.96
67052;BME280;53957;47.222;18.670;2024-01-15T17:42:19;98747.41;;;1.46;91.64
67052;BME280;53957;47.222;18.670;2024-01-15T17:45:23;98747.12;;;1.53;90.79
67052;BME280;53957;47.222;18.670;2024-01-15T17:48:28;98745.81;;;1.50;92.28
67052;BME280;53957;47.222;18.670;2024-01-15T17:51:41;98755.28;;;1.46;93.66
67052;BME280;53957;47.222;18.670;2024-01-15T17:54:45;98747.91;;;1.48;96.03
67052;BME280;53957;47.222;18.670;2024-01-15T17:57:49;98741.59;;;1.34;96.48
67052;BME280;53957;47.222;18.670;2024-01-15T18:00:52;98746.00;;;1.28;100.00
67052;BME280;53957;47.222;18.670;2024-01-15T18:03:59;98755.47;;;1.24;100.00
67052;BME280;53957;47.222;18.670;2024-01-15T18:07:06;98747.78;;;1.12;98.70
67052;BME280;53957;47.222;18.670;2024-01-15T18:10:12;98742.81;;;1.16;97.43
67052;BME280;53957;47.222;18.670;2024-01-15T18:13:15;98761.97;;;1.11;99.98
67052;BME280;53957;47.222;18.670;2024-01-15T18:16:18;98755.31;;;0.93;100.00
67052;BME280;53957;47.222;18.670;2024-01-15T18:19:26;98772.97;;;1.08;100.00
67052;BME280;53957;47.222;18.670;2024-01-15T18:22:31;98779.31;;;1.17;94.96
67052;BME280;53957;47.222;18.670;2024-01-15T18:25:34;98783.31;;;1.25;96.67
67052;BME280;53957;47.222;18.670;2024-01-15T18:28:40;98792.44;;;1.17;94.11
67052;BME280;53957;47.222;18.670;2024-01-15T18:31:43;98795.63;;;1.19;94.24
67052;BME280;53957;47.222;18.670;2024-01-15T18:34:47;98795.38;;;1.26;94.18
67052;BME280;53957;47.222;18.670;2024-01-15T18:37:50;98794.91;;;1.34;93.94
67052;BME280;53957;47.222;18.670;2024-01-15T18:40:53;98796.19;;;1.32;93.71
67052;BME280;53957;47.222;18.670;2024-01-15T18:43:56;98806.38;;;1.18;95.03
67052;BME280;53957;47.222;18.670;2024-01-15T18:47:00;98814.03;;;1.29;95.30
67052;BME280;53957;47.222;18.670;2024-01-15T18:50:05;98825.72;;;1.54;93.15
67052;BME280;53957;47.222;18.670;2024-01-15T18:53:16;98819.06;;;1.31;94.42
67052;BME280;53957;47.222;18.670;2024-01-15T18:56:19;98805.37;;;1.29;92.98
67052;BME280;53957;47.222;18.670;2024-01-15T18:59:22;98806.94;;;1.25;94.33
67052;BME280;53957;47.222;18.670;2024-01-15T19:02:30;98798.72;;;1.11;94.50
67052;BME280;53957;47.222;18.670;2024-01-15T19:05:33;98815.28;;;1.11;95.52
67052;BME280;53957;47.222;18.670;2024-01-15T19:08:36;98817.66;;;1.18;95.96
67052;BME280;53957;47.222;18.670;2024-01-15T19:11:39;98805.56;;;1.12;95.00
67052;BME280;53957;47.222;18.670;2024-01-15T19:14:44;98783.41;;;0.98;97.97
67052;BME280;53957;47.222;18.670;2024-01-15T19:17:47;98773.03;;;1.18;95.57
67052;BME280;53957;47.222;18.670;2024-01-15T19:20:51;98793.47;;;1.11;94.59
67052;BME280;53957;47.222;18.670;2024-01-15T19:23:56;98820.22;;;1.03;95.10
67052;BME280;53957;47.222;18.670;2024-01-15T19:26:59;98817.94;;;1.22;92.84
67052;BME280;53957;47.222;18.670;2024-01-15T19:30:03;98810.63;;;1.29;91.62
67052;BME280;53957;47.222;18.670;2024-01-15T19:33:07;98808.12;;;1.02;94.86
67052;BME280;53957;47.222;18.670;2024-01-15T19:36:21;98802.81;;;0.91;97.53
67052;BME280;53957;47.222;18.670;2024-01-15T19:39:25;98782.59;;;0.87;96.79
67052;BME280;53957;47.222;18.670;2024-01-15T19:42:29;98797.47;;;0.76;100.00
67052;BME280;53957;47.222;18.670;2024-01-15T19:45:32;98808.47;;;0.73;100.00
67052;BME280;53957;47.222;18.670;2024-01-15T19:48:36;98809.47;;;0.67;100.00
67052;BME280;53957;47.222;18.670;2024-01-15T19:51:42;98811.47;;;0.54;100.00
67052;BME280;53957;47.222;18.670;2024-01-15T19:54:52;98826.94;;;0.51;100.00
67052;BME280;53957;47.222;18.670;2024-01-15T19:58:06;98834.87;;;0.28;100.00
67052;BME280;53957;47.222;18.670;2024-01-15T20:01:10;98835.87;;;0.22;100.00
67052;BME280;53957;47.222;18.670;2024-01-15T20:04:13;98840.03;;;0.18;100.00
67052;BME280;53957;47.222;18.670;2024-01-15T20:07:16;98841.09;;;0.22;100.00
67052;BME280;53957;47.222;18.670;2024-01-15T20:10:20;98844.78;;;0.21;100.00
67052;BME280;53957;47.222;18.670;2024-01-15T20:13:23;98853.47;;;0.27;100.00
67052;BME280;53957;47.222;18.670;2024-01-15T20:16:32;98868.88;;;0.18;100.00
67052;BME280;53957;47.222;18.670;2024-01-15T20:19:36;98864.31;;;0.36;100.00
67052;BME280;53957;47.222;18.670;2024-01-15T20:22:40;98858.97;;;0.25;100.00
67052;BME280;53957;47.222;18.670;2024-01-15T20:25:43;98858.00;;;0.31;100.00
67052;BME280;53957;47.222;18.670;2024-01-15T20:28:46;98858.97;;;0.25;100.00
67052;BME280;53957;47.222;18.670;2024-01-15T20:31:52;98845.66;;;0.32;100.00
67052;BME280;53957;47.222;18.670;2024-01-15T20:35:01;98851.81;;;0.15;100.00
67052;BME280;53957;47.222;18.670;2024-01-15T20:38:04;98850.37;;;0.03;100.00
67052;BME280;53957;47.222;18.670;2024-01-15T20:41:07;98847.25;;;0.06;100.00
67052;BME280;53957;47.222;18.670;2024-01-15T20:44:10;98852.00;;;0.09;100.00
67052;BME280;53957;47.222;18.670;2024-01-15T20:47:14;98850.72;;;0.11;100.00
67052;BME280;53957;47.222;18.670;2024-01-15T20:50:20;98855.84;;;0.28;100.00
67052;BME280;53957;47.222;18.670;2024-01-15T20:53:29;98861.94;;;0.34;100.00
67052;BME280;53957;47.222;18.670;2024-01-15T20:56:33;98864.87;;;0.38;100.00
67052;BME280;53957;47.222;18.670;2024-01-15T20:59:40;98868.03;;;0.40;100.00
67052;BME280;53957;47.222;18.670;2024-01-15T21:02:49;98867.09;;;0.51;100.00
67052;BME280;53957;47.222;18.670;2024-01-15T21:05:54;98869.72;;;0.51;100.00
67052;BME280;53957;47.222;18.670;2024-01-15T21:08:57;98873.25;;;0.67;99.40
67052;BME280;53957;47.222;18.670;2024-01-15T21:12:01;98892.22;;;0.74;100.00
67052;BME280;53957;47.222;18.670;2024-01-15T21:15:07;98884.84;;;0.71;100.00
67052;BME280;53957;47.222;18.670;2024-01-15T21:18:11;98879.22;;;0.57;100.00
67052;BME280;53957;47.222;18.670;2024-01-15T21:21:16;98881.88;;;0.62;99.44
67052;BME280;53957;47.222;18.670;2024-01-15T21:24:19;98874.44;;;0.54;100.00
67052;BME280;53957;47.222;18.670;2024-01-15T21:27:25;98888.31;;;0.77;97.72
67052;BME280;53957;47.222;18.670;2024-01-15T21:30:29;98891.94;;;0.71;97.18
67052;BME280;53957;47.222;18.670;2024-01-15T21:33:38;98879.06;;;0.69;96.23
67052;BME280;53957;47.222;18.670;2024-01-15T21:36:44;98899.62;;;0.83;95.67
67052;BME280;53957;47.222;18.670;2024-01-15T21:39:47;98901.09;;;0.68;96.60
67052;BME280;53957;47.222;18.670;2024-01-15T21:42:51;98901.84;;;0.63;100.00
67052;BME280;53957;47.222;18.670;2024-01-15T21:45:57;98916.91;;;0.46;100.00
67052;BME280;53957;47.222;18.670;2024-01-15T21:49:00;98916.72;;;0.30;100.00
67052;BME280;53957;47.222;18.670;2024-01-15T21:52:04;98916.03;;;0.13;100.00
67052;BME280;53957;47.222;18.670;2024-01-15T21:55:07;98918.69;;;0.18;100.00
67052;BME280;53957;47.222;18.670;2024-01-15T21:58:12;98934.63;;;0.11;100.00
67052;BME280;53957;47.222;18.670;2024-01-15T22:01:16;98928.56;;;0.11;100.00
67052;BME280;53957;47.222;18.670;2024-01-15T22:04:23;98920.19;;;0.09;100.00
67052;BME280;53957;47.222;18.670;2024-01-15T22:07:26;98922.56;;;0.10;100.00
67052;BME280;53957;47.222;18.670;2024-01-15T22:10:29;98915.91;;;0.03;100.00
67052;BME280;53957;47.222;18.670;2024-01-15T22:13:32;98935.16;;;-0.09;100.00
67052;BME280;53957;47.222;18.670;2024-01-15T22:16:36;98926.22;;;-0.13;100.00
67052;BME280;53957;47.222;18.670;2024-01-15T22:19:39;98927.75;;;-0.17;100.00
67052;BME280;53957;47.222;18.670;2024-01-15T22:22:44;98948.81;;;-0.29;100.00
67052;BME280;53957;47.222;18.670;2024-01-15T22:25:47;98953.09;;;-0.40;100.00
67052;BME280;53957;47.222;18.670;2024-01-15T22:28:50;98962.78;;;-0.23;100.00
67052;BME280;53957;47.222;18.670;2024-01-15T22:31:54;98955.00;;;0.04;100.00
67052;BME280;53957;47.222;18.670;2024-01-15T22:35:00;98956.94;;;0.14;100.00
67052;BME280;53957;47.222;18.670;2024-01-15T22:38:05;98955.94;;;0.42;100.00
67052;BME280;53957;47.222;18.670;2024-01-15T22:41:08;98942.53;;;0.66;100.00
67052;BME280;53957;47.222;18.670;2024-01-15T22:44:13;98952.25;;;0.66;100.00
67052;BME280;53957;47.222;18.670;2024-01-15T22:47:18;98965.94;;;0.73;100.00
67052;BME280;53957;47.222;18.670;2024-01-15T22:50:21;98968.56;;;0.73;100.00
67052;BME280;53957;47.222;18.670;2024-01-15T22:53:28;98979.00;;;0.68;100.00
67052;BME280;53957;47.222;18.670;2024-01-15T22:56:32;98983.38;;;0.84;100.00
67052;BME280;53957;47.222;18.670;2024-01-15T22:59:35;98973.97;;;0.88;100.00
67052;BME280;53957;47.222;18.670;2024-01-15T23:02:38;98983.66;;;0.60;100.00
67052;BME280;53957;47.222;18.670;2024-01-15T23:05:41;98988.16;;;0.38;100.00
67052;BME280;53957;47.222;18.670;2024-01-15T23:08:49;98983.41;;;0.35;100.00
67052;BME280;53957;47.222;18.670;2024-01-15T23:11:52;98977.91;;;0.36;100.00
67052;BME280;53957;47.222;18.670;2024-01-15T23:14:58;98997.34;;;0.18;100.00
67052;BME280;53957;47.222;18.670;2024-01-15T23:18:01;99005.91;;;0.30;100.00
67052;BME280;53957;47.222;18.670;2024-01-15T23:21:04;99018.69;;;0.05;100.00
67052;BME280;53957;47.222;18.670;2024-01-15T23:24:08;99013.50;;;0.10;100.00
67052;BME280;53957;47.222;18.670;2024-01-15T23:27:13;99020.22;;;0.01;100.00
67052;BME280;53957;47.222;18.670;2024-01-15T23:30:17;99020.78;;;0.03;100.00
67052;BME280;53957;47.222;18.670;2024-01-15T23:33:20;99018.16;;;0.03;100.00
67052;BME280;53957;47.222;18.670;2024-01-15T23:36:23;99031.66;;;-0.06;100.00
67052;BME280;53957;47.222;18.670;2024-01-15T23:39:27;99036.69;;;-0.21;100.00
67052;BME280;53957;47.222;18.670;2024-01-15T23:42:31;99045.19;;;-0.14;100.00
67052;BME280;53957;47.222;18.670;2024-01-15T23:45:35;99044.53;;;-0.04;100.00
67052;BME280;53957;47.222;18.670;2024-01-15T23:48:38;99048.44;;;-0.07;100.00
67052;BME280;53957;47.222;18.670;2024-01-15T23:51:42;99059.16;;;-0.25;100.00
67052;BME280;53957;47.222;18.670;2024-01-15T23:54:46;99067.53;;;-0.28;100.00
67052;BME280;53957;47.222;18.670;2024-01-15T23:57:49;99072.59;;;-0.22;100.00
